Guttenberg, New Jersey
Current Conditions -  °F | °C
As of 7:33 AM on Monday 26 Jan 2015 (Local Time) from KNYC Reporting Station
Light Snow Light Snow  
Wind Chill: 12°   Ceiling: 3200
Heat Index: 24°   Visibility: 4mi
Dew Point: 13°   Wind: 13mph
Humidity: 62%   Direction: 70°ENE
Pressure: 30.01"   Gusts: 24mph
Location:  40.7879°N, 74.0112°W
Report Text: KNYC 261233Z AUTO 07011G21KT 040V110 4SM -SN OVC032 M04/M11 A3001 RMK AO2 P0000 T10441106
Loading
Personal Weather Stations






























Interactive Weather Map New forecast layout! Learn more

10-Day Weather Forecast

Advertisements
Track Severe Weather on mobile